Terminal Aerodrome Forecast
Issued by NWS Wilmington, OH

Home | Current Version | Previous Version | Text Only | Print | Product List | Glossary On
Versions: 1 2 3 4 5 6 7 8 9 10 11 12 13 14 15 16 17 18 19
000
FTUS41 KILN 011100
TAFCMH
TAF
KCMH 011127Z 0112/0212 18004KT P6SM OVC008
     FM011400 21007KT P6SM BKN012 OVC025
     FM011600 21009KT P6SM BKN025
     FM011800 22014G22KT P6SM SCT035
     FM020400 21006KT P6SM VCSH BKN030
     FM021000 22008KT P6SM VCTS BKN040CB=

USA.gov is the U.S. government's official web portal to all federal, state and local government web resources and services.